createdAt,value
2022-09-12T00:02:08.029Z,14.78
2022-09-12T00:07:28.601Z,14.56
2022-09-12T00:12:49.322Z,14.52
2022-09-12T00:18:14.479Z,14.59
2022-09-12T00:23:35.048Z,14.54
2022-09-12T00:28:55.890Z,14.56
2022-09-12T00:34:16.617Z,14.64
2022-09-12T00:39:37.229Z,14.66
2022-09-12T00:44:58.117Z,14.60
2022-09-12T00:50:19.466Z,14.58
2022-09-12T00:55:43.635Z,14.65
2022-09-12T01:01:04.568Z,14.75
2022-09-12T01:06:31.094Z,14.72
2022-09-12T01:11:53.623Z,14.83
2022-09-12T01:17:15.317Z,14.88
2022-09-12T01:22:51.014Z,14.87
2022-09-12T01:28:46.161Z,14.75
2022-09-12T01:34:21.990Z,14.69
2022-09-12T01:39:58.105Z,14.64
2022-09-12T01:45:48.309Z,14.64
2022-09-12T01:51:14.947Z,14.63
2022-09-12T01:56:39.210Z,14.69
2022-09-12T02:02:13.679Z,14.58
2022-09-12T02:07:45.053Z,14.45
2022-09-12T02:13:50.687Z,14.28
2022-09-12T02:19:34.511Z,14.22
2022-09-12T02:24:59.955Z,14.16
2022-09-12T02:30:22.871Z,14.22
2022-09-12T02:35:52.968Z,14.14
2022-09-12T02:41:17.581Z,14.05
2022-09-12T02:46:46.870Z,14.02
2022-09-12T02:52:07.924Z,14.10
2022-09-12T02:57:28.733Z,14.03
2022-09-12T03:03:26.991Z,14.03
2022-09-12T03:09:16.157Z,13.94
2022-09-12T03:14:39.955Z,13.84
2022-09-12T03:20:10.358Z,13.77
2022-09-12T03:25:48.547Z,13.79
2022-09-12T03:31:15.031Z,13.84
2022-09-12T03:36:35.907Z,13.73
2022-09-12T03:41:57.319Z,13.69
2022-09-12T03:47:18.242Z,13.68
2022-09-12T03:52:38.905Z,13.64
2022-09-12T03:57:59.656Z,13.59
2022-09-12T04:03:20.494Z,13.47
2022-09-12T04:08:42.416Z,13.36
2022-09-12T04:14:03.025Z,13.37
2022-09-12T04:19:23.816Z,13.48
2022-09-12T04:24:44.671Z,13.45
2022-09-12T04:30:06.263Z,13.50
2022-09-12T04:35:27.648Z,13.36
2022-09-12T04:40:48.511Z,13.27
2022-09-12T04:46:11.494Z,13.29
2022-09-12T04:51:35.912Z,13.48
2022-09-12T04:56:56.526Z,13.44
2022-09-12T05:02:17.307Z,13.37
2022-09-12T05:07:37.912Z,13.49
2022-09-12T05:12:58.622Z,13.54
2022-09-12T05:18:19.419Z,13.48
2022-09-12T05:23:40.584Z,13.59
2022-09-12T05:29:04.758Z,13.74
2022-09-12T05:34:25.692Z,13.87
2022-09-12T05:39:46.547Z,13.94
2022-09-12T05:45:07.473Z,13.86
2022-09-12T05:50:28.309Z,13.81
2022-09-12T05:55:49.264Z,13.81
2022-09-12T06:01:14.726Z,13.97
2022-09-12T06:06:38.575Z,14.23
2022-09-12T06:11:59.549Z,14.20
2022-09-12T06:17:20.571Z,14.21
2022-09-12T06:22:41.446Z,14.30
2022-09-12T06:28:02.323Z,14.26
2022-09-12T06:33:23.214Z,14.29
2022-09-12T06:38:46.364Z,14.32
2022-09-12T06:44:07.284Z,14.31
2022-09-12T06:49:28.016Z,14.36
2022-09-12T06:54:49.214Z,14.67
2022-09-12T07:00:10.562Z,14.74
2022-09-12T07:05:34.271Z,14.89
2022-09-12T07:10:55.153Z,15.19
2022-09-12T07:16:19.749Z,15.33
2022-09-12T07:21:41.517Z,15.49
2022-09-12T07:27:02.702Z,15.76
2022-09-12T07:32:23.839Z,15.62
2022-09-12T07:37:44.762Z,15.49
2022-09-12T07:43:05.361Z,15.36
2022-09-12T07:48:28.355Z,15.54
2022-09-12T07:53:49.972Z,15.58
2022-09-12T07:59:11.605Z,15.91
2022-09-12T08:04:32.236Z,16.04
2022-09-12T08:09:53.527Z,16.11
2022-09-12T08:15:14.193Z,16.22
2022-09-12T08:20:34.732Z,16.34
2022-09-12T08:25:57.527Z,16.32
2022-09-12T08:31:20.454Z,16.16
2022-09-12T08:36:41.456Z,16.21
2022-09-12T08:42:03.758Z,16.25
2022-09-12T08:47:32.547Z,16.10
2022-09-12T08:53:02.516Z,16.20
2022-09-12T08:58:24.456Z,16.37
2022-09-12T09:04:10.142Z,16.37
2022-09-12T09:09:44.686Z,16.51
2022-09-12T09:15:26.259Z,16.59
2022-09-12T09:20:54.296Z,16.75
2022-09-12T09:26:30.517Z,17.18
2022-09-12T09:31:58.257Z,17.02
2022-09-12T09:37:21.378Z,16.91
2022-09-12T09:42:51.759Z,17.16
2022-09-12T09:48:22.521Z,17.22
2022-09-12T09:53:51.826Z,17.27
2022-09-12T09:59:25.810Z,17.52
2022-09-12T10:04:57.786Z,17.70
2022-09-12T10:10:22.919Z,17.95
2022-09-12T10:15:57.857Z,17.90
2022-09-12T10:21:46.228Z,18.02
2022-09-12T10:27:20.297Z,18.03
2022-09-12T10:32:48.794Z,18.00
2022-09-12T10:38:30.407Z,17.92
2022-09-12T10:43:51.282Z,18.00
2022-09-12T10:49:27.247Z,17.98
2022-09-12T10:54:50.537Z,18.02
2022-09-12T11:00:20.600Z,18.14
2022-09-12T11:05:57.756Z,18.33
2022-09-12T11:11:24.546Z,18.38
2022-09-12T11:16:58.728Z,18.51
2022-09-12T11:22:53.040Z,18.67
2022-09-12T11:28:22.517Z,18.68
2022-09-12T11:33:50.250Z,18.76
2022-09-12T11:39:15.567Z,18.72
2022-09-12T11:44:46.184Z,18.53
2022-09-12T11:50:23.428Z,18.59
2022-09-12T11:56:00.069Z,18.70
2022-09-12T12:01:26.337Z,18.77
2022-09-12T12:07:02.255Z,18.69
2022-09-12T12:12:28.259Z,18.68
2022-09-12T12:18:32.334Z,18.70
2022-09-12T12:24:10.146Z,18.76
2022-09-12T12:29:43.617Z,18.64
2022-09-12T12:35:47.347Z,18.57
2022-09-12T12:41:17.508Z,18.53
2022-09-12T12:46:38.654Z,18.39
2022-09-12T12:52:03.757Z,18.47
2022-09-12T12:57:40.852Z,18.46
2022-09-12T13:03:27.799Z,18.61
2022-09-12T13:09:00.447Z,18.63
2022-09-12T13:14:43.075Z,18.73
2022-09-12T13:20:29.910Z,18.79
2022-09-12T13:25:56.513Z,18.70
2022-09-12T13:31:24.224Z,18.82
2022-09-12T13:36:54.567Z,18.91
2022-09-12T13:42:36.400Z,18.83
2022-09-12T13:48:02.007Z,18.83
2022-09-12T13:53:26.148Z,18.97
2022-09-12T13:58:57.606Z,19.04
2022-09-12T14:04:40.165Z,19.12
2022-09-12T14:10:02.115Z,19.06
2022-09-12T14:15:30.711Z,19.05
2022-09-12T14:20:53.332Z,19.06
2022-09-12T14:26:15.443Z,19.22
2022-09-12T14:31:38.403Z,19.22
2022-09-12T14:36:59.761Z,19.23
2022-09-12T14:42:23.784Z,19.08
2022-09-12T14:47:50.320Z,19.01
2022-09-12T14:53:17.221Z,19.01
2022-09-12T14:58:42.247Z,18.99
2022-09-12T15:04:03.036Z,19.02
2022-09-12T15:09:23.596Z,19.06
2022-09-12T15:14:44.183Z,19.06
2022-09-12T15:20:05.639Z,19.04
2022-09-12T15:25:26.811Z,19.01
2022-09-12T15:30:50.569Z,18.93
2022-09-12T15:36:15.758Z,18.86
2022-09-12T15:41:38.304Z,18.69
2022-09-12T15:46:59.185Z,18.59
2022-09-12T15:52:19.822Z,18.49
2022-09-12T15:57:40.506Z,18.40
2022-09-12T16:03:01.321Z,18.43
2022-09-12T16:08:22.081Z,18.38
2022-09-12T16:13:43.033Z,18.41
2022-09-12T16:19:03.791Z,18.46
2022-09-12T16:24:24.336Z,18.47
2022-09-12T16:29:45.120Z,18.62
2022-09-12T16:35:06.499Z,18.64
2022-09-12T16:40:27.327Z,18.41
2022-09-12T16:45:48.339Z,18.22
2022-09-12T16:51:09.825Z,18.22
2022-09-12T16:56:30.830Z,18.07
2022-09-12T17:01:52.311Z,18.05
2022-09-12T17:07:13.339Z,18.07
2022-09-12T17:12:34.191Z,17.91
2022-09-12T17:17:55.215Z,17.71
2022-09-12T17:23:16.072Z,17.75
2022-09-12T17:28:40.713Z,17.76
2022-09-12T17:34:02.197Z,17.81
2022-09-12T17:39:23.252Z,17.89
2022-09-12T17:44:44.093Z,17.88
2022-09-12T17:50:30.373Z,17.86
2022-09-12T17:55:46.312Z,17.72
2022-09-12T18:01:34.597Z,17.46
2022-09-12T18:06:57.625Z,17.28
2022-09-12T18:12:20.101Z,17.16
2022-09-12T18:17:40.946Z,17.08
2022-09-12T18:23:01.715Z,17.10
2022-09-12T18:28:22.573Z,17.15
2022-09-12T18:33:44.275Z,17.09
2022-09-12T18:39:05.091Z,17.11
2022-09-12T18:44:26.943Z,17.20
2022-09-12T18:49:47.587Z,17.18
2022-09-12T18:55:08.753Z,17.18
2022-09-12T19:00:29.749Z,17.16
2022-09-12T19:05:50.355Z,17.13
2022-09-12T19:11:12.684Z,17.09
2022-09-12T19:16:38.222Z,17.01
2022-09-12T19:21:59.127Z,16.95
2022-09-12T19:27:19.970Z,16.92
2022-09-12T19:32:40.565Z,16.92
2022-09-12T19:38:01.225Z,16.75
2022-09-12T19:43:22.333Z,16.60
2022-09-12T19:48:43.054Z,16.54
2022-09-12T19:54:03.920Z,16.52
2022-09-12T19:59:24.444Z,16.38
2022-09-12T20:04:45.479Z,16.30
2022-09-12T20:10:06.397Z,16.21
2022-09-12T20:15:27.344Z,16.14
2022-09-12T20:20:47.999Z,16.11
2022-09-12T20:26:09.559Z,16.07
2022-09-12T20:31:30.499Z,16.00
2022-09-12T20:36:51.420Z,16.07
2022-09-12T20:42:12.295Z,16.18
2022-09-12T20:47:33.493Z,16.04
2022-09-12T20:52:54.969Z,15.92
2022-09-12T20:58:15.890Z,15.84
2022-09-12T21:03:38.797Z,15.83
2022-09-12T21:09:00.554Z,15.78
2022-09-12T21:14:21.393Z,15.69
2022-09-12T21:19:42.257Z,15.70
2022-09-12T21:25:03.373Z,15.50
2022-09-12T21:30:24.327Z,15.37
2022-09-12T21:35:45.915Z,15.36
2022-09-12T21:41:12.809Z,15.32
2022-09-12T21:46:33.501Z,15.32
2022-09-12T21:51:54.129Z,15.22
2022-09-12T21:57:14.718Z,15.07
2022-09-12T22:02:35.537Z,14.93
2022-09-12T22:07:56.220Z,14.91
2022-09-12T22:13:16.880Z,14.93
2022-09-12T22:18:38.231Z,14.96
2022-09-12T22:24:19.140Z,15.00
2022-09-12T22:29:39.708Z,15.06
2022-09-12T22:35:00.219Z,15.15
2022-09-12T22:40:20.986Z,15.20
2022-09-12T22:45:42.064Z,15.12
2022-09-12T22:51:02.881Z,15.10
2022-09-12T22:56:23.785Z,14.90
2022-09-12T23:01:44.798Z,14.76
2022-09-12T23:07:05.489Z,14.66
2022-09-12T23:12:26.388Z,14.59
2022-09-12T23:17:47.443Z,14.56
2022-09-12T23:23:08.121Z,14.46
2022-09-12T23:28:29.395Z,14.31
2022-09-12T23:33:52.856Z,14.24
2022-09-12T23:39:13.845Z,14.17
2022-09-12T23:44:34.324Z,14.11
2022-09-12T23:49:55.135Z,14.09
2022-09-12T23:55:15.548Z,14.11
